Time,TemperatureF,DewpointF,PressureIn,WindDirection,WindDirectionDegrees,WindSpeedMPH,WindSpeedGustMPH,Humidity,HourlyPrecipIn,Conditions,Clouds,dailyrainin,SoftwareType,DateUTC
2013-06-30 00:23:00,63.0,37.0,-100.00,NNW,330,10.0,16.0,37,-99.99,,,-99.99,,2013-06-30 06:23:00,
2013-06-30 00:43:00,62.0,38.0,-100.00,North,0,7.0,11.0,41,-99.99,,,-99.99,,2013-06-30 06:43:00,
2013-06-30 00:53:00,62.0,39.0,-100.00,North,350,10.0,12.0,42,-99.99,,,-99.99,,2013-06-30 06:53:00,
2013-06-30 01:02:00,62.0,39.0,-100.00,NNW,335,12.0,15.0,41,-99.99,,,-99.99,,2013-06-30 07:02:00,
2013-06-30 01:44:00,61.0,39.0,-100.00,NW,305,5.0,7.0,43,-99.99,,,-99.99,,2013-06-30 07:44:00,
2013-06-30 02:02:00,61.0,38.0,-100.00,WNW,285,5.0,6.0,43,-99.99,,,-99.99,,2013-06-30 08:02:00,
2013-06-30 02:11:00,61.0,38.0,-100.00,NW,305,4.0,7.0,43,-99.99,,,-99.99,,2013-06-30 08:11:00,
2013-06-30 02:33:00,61.0,38.0,-100.00,WNW,300,4.0,6.0,42,-99.99,,,-99.99,,2013-06-30 08:33:00,
2013-06-30 02:42:00,61.0,38.0,-100.00,NW,305,4.0,6.0,43,-99.99,,,-99.99,,2013-06-30 08:42:00,
2013-06-30 02:53:00,60.0,38.0,-100.00,NW,310,4.0,7.0,43,-99.99,,,-99.99,,2013-06-30 08:53:00,
2013-06-30 03:01:00,61.0,38.0,-100.00,NW,320,3.0,4.0,43,-99.99,,,-99.99,,2013-06-30 09:01:00,
2013-06-30 03:12:00,60.0,38.0,-100.00,NNW,345,4.0,4.0,43,-99.99,,,-99.99,,2013-06-30 09:12:00,
2013-06-30 03:43:00,62.0,38.0,-100.00,North,355,6.0,7.0,41,-99.99,,,-99.99,,2013-06-30 09:43:00,
2013-06-30 03:53:00,62.0,38.0,-100.00,NNW,340,4.0,7.0,41,-99.99,,,-99.99,,2013-06-30 09:53:00,
2013-06-30 04:02:00,61.0,37.0,-100.00,NNW,345,3.0,4.0,41,-99.99,,,-99.99,,2013-06-30 10:02:00,
2013-06-30 04:11:00,62.0,38.0,-100.00,NNE,20,2.0,3.0,40,-99.99,,,-99.99,,2013-06-30 10:11:00,
2013-06-30 04:22:00,62.0,38.0,-100.00,NE,50,0.0,2.0,40,-99.99,,,-99.99,,2013-06-30 10:22:00,
2013-06-30 05:43:00,54.0,35.0,-100.00,East,95,6.0,7.0,48,-99.99,,,-99.99,,2013-06-30 11:43:00,
2013-06-30 05:53:00,55.0,36.0,-100.00,East,95,8.0,8.0,48,-99.99,,,-99.99,,2013-06-30 11:53:00,
2013-06-30 06:01:00,54.0,36.0,-100.00,ESE,105,9.0,9.0,49,-99.99,,,-99.99,,2013-06-30 12:01:00,
2013-06-30 06:11:00,54.0,36.0,-100.00,East,100,9.0,10.0,49,-99.99,,,-99.99,,2013-06-30 12:11:00,
2013-06-30 06:33:00,54.0,36.0,-100.00,ESE,110,8.0,11.0,50,-99.99,,,-99.99,,2013-06-30 12:33:00,
2013-06-30 06:43:00,53.0,36.0,-100.00,East,95,9.0,10.0,51,-99.99,,,-99.99,,2013-06-30 12:43:00,
2013-06-30 06:52:00,56.0,38.0,-100.00,East,90,10.0,11.0,51,-99.99,,,-99.99,,2013-06-30 12:52:00,
2013-06-30 07:02:00,58.0,39.0,-100.00,East,90,10.0,11.0,50,-99.99,,,-99.99,,2013-06-30 13:02:00,
2013-06-30 07:12:00,58.0,40.0,-100.00,ESE,110,9.0,10.0,50,-99.99,,,-99.99,,2013-06-30 13:12:00,
2013-06-30 07:33:00,59.0,41.0,-100.00,ESE,110,7.0,11.0,50,-99.99,,,-99.99,,2013-06-30 13:33:00,
2013-06-30 07:43:00,60.0,41.0,-100.00,ESE,120,8.0,9.0,49,-99.99,,,-99.99,,2013-06-30 13:43:00,
2013-06-30 07:53:00,60.0,40.0,-100.00,SE,140,6.0,9.0,49,-99.99,,,-99.99,,2013-06-30 13:53:00,
2013-06-30 08:02:00,60.0,41.0,-100.00,ESE,115,7.0,9.0,49,-99.99,,,-99.99,,2013-06-30 14:02:00,
2013-06-30 08:11:00,62.0,42.0,-100.00,ESE,120,7.0,8.0,47,-99.99,,,-99.99,,2013-06-30 14:11:00,
2013-06-30 08:33:00,65.0,43.0,-100.00,SE,125,6.0,7.0,44,-99.99,,,-99.99,,2013-06-30 14:33:00,
2013-06-30 08:44:00,66.0,43.0,-100.00,NNE,30,2.0,6.0,42,-99.99,,,-99.99,,2013-06-30 14:44:00,
2013-06-30 09:02:00,68.0,42.0,-100.00,WNW,300,3.0,6.0,38,-99.99,,,-99.99,,2013-06-30 15:02:00,
2013-06-30 09:12:00,70.0,43.0,-100.00,NW,305,5.0,6.0,36,-99.99,,,-99.99,,2013-06-30 15:12:00,
2013-06-30 09:34:00,72.0,43.0,-100.00,SSE,165,1.0,4.0,34,-99.99,,,-99.99,,2013-06-30 15:34:00,
2013-06-30 09:44:00,74.0,43.0,-100.00,West,280,1.0,5.0,32,-99.99,,,-99.99,,2013-06-30 15:44:00,
2013-06-30 10:01:00,75.0,42.0,-100.00,North,350,2.0,6.0,31,-99.99,,,-99.99,,2013-06-30 16:01:00,
2013-06-30 10:11:00,73.0,41.0,-100.00,NW,305,4.0,6.0,31,-99.99,,,-99.99,,2013-06-30 16:11:00,
2013-06-30 10:21:00,76.0,42.0,-100.00,NW,310,4.0,7.0,30,-99.99,,,-99.99,,2013-06-30 16:21:00,
2013-06-30 10:34:00,75.0,42.0,-100.00,West,265,3.0,7.0,31,-99.99,,,-99.99,,2013-06-30 16:34:00,
2013-06-30 10:44:00,76.0,42.0,-100.00,West,260,1.0,7.0,29,-99.99,,,-99.99,,2013-06-30 16:44:00,
2013-06-30 11:01:00,78.0,42.0,-100.00,NW,325,3.0,7.0,27,-99.99,,,-99.99,,2013-06-30 17:01:00,
2013-06-30 11:11:00,74.0,40.0,-100.00,North,355,7.0,9.0,29,-99.99,,,-99.99,,2013-06-30 17:11:00,
2013-06-30 11:43:00,75.0,41.0,-100.00,North,0,9.0,13.0,29,-99.99,,,-99.99,,2013-06-30 17:43:00,
2013-06-30 12:02:00,78.0,42.0,-100.00,NW,325,10.0,14.0,27,-99.99,,,-99.99,,2013-06-30 18:02:00,
2013-06-30 12:22:00,76.0,39.0,-100.00,NNE,20,12.0,17.0,26,-99.99,,,-99.99,,2013-06-30 18:22:00,
2013-06-30 12:43:00,79.0,40.0,-100.00,North,0,9.0,15.0,25,-99.99,,,-99.99,,2013-06-30 18:43:00,
2013-06-30 13:01:00,78.0,39.0,-100.00,North,355,12.0,20.0,24,-99.99,,,-99.99,,2013-06-30 19:01:00,
2013-06-30 13:33:00,80.0,39.0,-100.00,North,0,9.0,19.0,23,-99.99,,,-99.99,,2013-06-30 19:33:00,
2013-06-30 13:43:00,80.0,40.0,-100.00,NNE,15,9.0,17.0,23,-99.99,,,-99.99,,2013-06-30 19:43:00,
2013-06-30 13:53:00,80.0,39.0,-100.00,NNE,30,11.0,18.0,23,-99.99,,,-99.99,,2013-06-30 19:53:00,
2013-06-30 14:01:00,80.0,40.0,-100.00,NNW,335,7.0,18.0,23,-99.99,,,-99.99,,2013-06-30 20:01:00,
2013-06-30 14:11:00,81.0,40.0,-100.00,North,0,15.0,22.0,22,-99.99,,,-99.99,,2013-06-30 20:11:00,
2013-06-30 14:34:00,82.0,38.0,-100.00,North,350,16.0,21.0,21,-99.99,,,-99.99,,2013-06-30 20:34:00,
2013-06-30 14:42:00,83.0,39.0,-100.00,North,0,5.0,14.0,21,-99.99,,,-99.99,,2013-06-30 20:42:00,
2013-06-30 15:01:00,82.0,38.0,-100.00,North,5,8.0,16.0,21,-99.99,,,-99.99,,2013-06-30 21:01:00,
2013-06-30 15:11:00,82.0,38.0,-100.00,NNE,20,16.0,20.0,20,-99.99,,,-99.99,,2013-06-30 21:11:00,
2013-06-30 15:42:00,83.0,38.0,-100.00,North,0,14.0,21.0,19,-99.99,,,-99.99,,2013-06-30 21:42:00,
2013-06-30 16:01:00,84.0,38.0,-100.00,North,0,15.0,23.0,19,-99.99,,,-99.99,,2013-06-30 22:01:00,
2013-06-30 16:11:00,84.0,38.0,-100.00,NNE,30,7.0,21.0,19,-99.99,,,-99.99,,2013-06-30 22:11:00,
2013-06-30 16:34:00,84.0,38.0,-100.00,North,10,13.0,19.0,19,-99.99,,,-99.99,,2013-06-30 22:34:00,
2013-06-30 16:43:00,84.0,38.0,-100.00,NE,35,4.0,17.0,19,-99.99,,,-99.99,,2013-06-30 22:43:00,
2013-06-30 17:11:00,84.0,37.0,-100.00,North,0,12.0,21.0,18,-99.99,,,-99.99,,2013-06-30 23:11:00,
2013-06-30 17:43:00,83.0,36.0,-100.00,NNW,340,12.0,17.0,19,-99.99,,,-99.99,,2013-06-30 23:43:00,
2013-06-30 17:53:00,83.0,37.0,-100.00,NNW,330,8.0,17.0,19,-99.99,,,-99.99,,2013-06-30 23:53:00,
2013-06-30 18:01:00,84.0,38.0,-100.00,NNW,335,12.0,17.0,19,-99.99,,,-99.99,,2013-07-01 00:01:00,
2013-06-30 18:11:00,83.0,37.0,-100.00,North,0,14.0,22.0,19,-99.99,,,-99.99,,2013-07-01 00:11:00,
2013-06-30 18:33:00,82.0,36.0,-100.00,NNW,335,13.0,21.0,19,-99.99,,,-99.99,,2013-07-01 00:33:00,
2013-06-30 18:42:00,81.0,36.0,-100.00,North,0,9.0,17.0,19,-99.99,,,-99.99,,2013-07-01 00:42:00,
2013-06-30 19:01:00,80.0,36.0,-100.00,NNE,20,12.0,16.0,19,-99.99,,,-99.99,,2013-07-01 01:01:00,
2013-06-30 19:11:00,80.0,36.0,-100.00,ENE,70,17.0,21.0,20,-99.99,,,-99.99,,2013-07-01 01:11:00,
2013-06-30 19:22:00,78.0,37.0,-100.00,ESE,110,22.0,24.0,22,-99.99,,,-99.99,,2013-07-01 01:22:00,
2013-06-30 19:33:00,77.0,37.0,-100.00,ESE,115,17.0,24.0,23,-99.99,,,-99.99,,2013-07-01 01:33:00,
2013-06-30 19:42:00,76.0,37.0,-100.00,SE,130,17.0,21.0,24,-99.99,,,-99.99,,2013-07-01 01:42:00,
2013-06-30 20:02:00,76.0,38.0,-100.00,SE,125,12.0,17.0,25,-99.99,,,-99.99,,2013-07-01 02:02:00,
2013-06-30 20:11:00,75.0,37.0,-100.00,SE,125,13.0,16.0,25,-99.99,,,-99.99,,2013-07-01 02:11:00,
2013-06-30 20:33:00,69.0,38.0,-100.00,NNW,330,12.0,24.0,32,-99.99,,,-99.99,,2013-07-01 02:33:00,
2013-06-30 20:43:00,68.0,38.0,-100.00,NNE,25,11.0,-999.0,32,-99.99,,,-99.99,,2013-07-01 02:43:00,
2013-06-30 20:53:00,70.0,39.0,-100.00,ESE,110,6.0,17.0,31,-99.99,,,-99.99,,2013-07-01 02:53:00,
2013-06-30 21:01:00,66.0,40.0,-100.00,East,100,6.0,9.0,38,-99.99,,,-99.99,,2013-07-01 03:01:00,
2013-06-30 21:11:00,66.0,40.0,-100.00,SSE,150,7.0,9.0,38,-99.99,,,-99.99,,2013-07-01 03:11:00,
2013-06-30 21:23:00,66.0,40.0,-100.00,ESE,120,5.0,7.0,38,-99.99,,,-99.99,,2013-07-01 03:23:00,
2013-06-30 21:43:00,65.0,41.0,-100.00,SSE,165,7.0,8.0,41,-99.99,,,-99.99,,2013-07-01 03:43:00,
2013-06-30 22:01:00,65.0,40.0,-100.00,South,190,6.0,6.0,39,-99.99,,,-99.99,,2013-07-01 04:01:00,
2013-06-30 22:11:00,66.0,40.0,-100.00,South,180,4.0,6.0,38,-99.99,,,-99.99,,2013-07-01 04:11:00,
2013-06-30 22:42:00,65.0,40.0,-100.00,East,80,9.0,9.0,40,-99.99,,,-99.99,,2013-07-01 04:42:00,
2013-06-30 22:53:00,64.0,41.0,-100.00,ENE,65,12.0,18.0,42,-99.99,,,-99.99,,2013-07-01 04:53:00,
2013-06-30 23:01:00,64.0,40.0,-100.00,ENE,75,18.0,23.0,41,-99.99,,,-99.99,,2013-07-01 05:01:00,
2013-06-30 23:11:00,63.0,39.0,-100.00,East,85,18.0,24.0,41,-99.99,,,-99.99,,2013-07-01 05:11:00,
2013-06-30 23:22:00,61.0,39.0,-100.00,East,85,13.0,20.0,44,-99.99,,,-99.99,,2013-07-01 05:22:00,
2013-06-30 23:33:00,61.0,39.0,-100.00,East,90,12.0,16.0,43,-99.99,,,-99.99,,2013-07-01 05:33:00,
2013-06-30 23:42:00,61.0,39.0,-100.00,East,80,11.0,14.0,43,-99.99,,,-99.99,,2013-07-01 05:42:00,
2013-06-30 23:52:00,61.0,39.0,-100.00,ENE,75,13.0,16.0,43,-99.99,,,-99.99,,2013-07-01 05:52:00,